• Join FlightAware (Why Join?)
  • Login
  • US Flag 
08:38AM EDT


 

Airport Tracker/Info


-or-


 

Live Flight TrackerFlight Track Log ✈ N1340Z ✈ 12-Jul-2013 ✈ KCPC - KEVB

Flight Track Log - Related Links

Times and Time Zones

All times are in EDT time to prevent confusion due to time zone crossing. See the N1340Z flight status page for this flight to view local times or setup timezone preferences in your user account.

Time Position Orientation Groundspeed Altitude Reporting Facility
EDT Latitude Longitude Course Direction KTS MPH feet Rate Location/Type
11:49AM 34.0851 -78.8886 214° Southwest  Level FlightAware Approximate
11:50AM 34.0517 -78.9153 214° Southwest  Level FlightAware Approximate
11:51AM 34.0206 -78.9456 219° Southwest  Level FlightAware Approximate
11:52AM 33.9896 -78.9761 219° Southwest  Level FlightAware Approximate
11:53AM 33.9586 -79.0066 219° Southwest  Level FlightAware Approximate
11:54AM 33.9276 -79.0370 219° Southwest  Level FlightAware Approximate
11:55AM 33.8966 -79.0674 219° Southwest  Level FlightAware Approximate
11:56AM 33.8656 -79.0978 219° Southwest  Level FlightAware Approximate
11:57AM 33.8345 -79.1282 219° Southwest  Level FlightAware Approximate
11:58AM 33.8035 -79.1586 219° Southwest  Level FlightAware Approximate
11:59AM 33.7724 -79.1889 219° Southwest  Level FlightAware Approximate
12:00PM 33.7414 -79.2192 219° Southwest  Level FlightAware Approximate
12:01PM 33.7103 -79.2495 219° Southwest  Level FlightAware Approximate
12:02PM 33.6792 -79.2798 219° Southwest  Level FlightAware Approximate
12:03PM 33.6482 -79.3101 219° Southwest  Level FlightAware Approximate
12:04PM 33.6171 -79.3403 219° Southwest  Level FlightAware Approximate
12:05PM 33.5860 -79.3705 219° Southwest  Level FlightAware Approximate
12:06PM 33.5549 -79.4007 219° Southwest  Level FlightAware Approximate
12:07PM 33.5238 -79.4309 219° Southwest  Level FlightAware Approximate
12:08PM 33.4926 -79.4610 219° Southwest  Level FlightAware Approximate
12:09PM 33.4615 -79.4911 219° Southwest  Level FlightAware Approximate
12:10PM 33.4304 -79.5212 219° Southwest  Level FlightAware Approximate
12:11PM 33.3993 -79.5513 219° Southwest  Level FlightAware Approximate
12:12PM 33.3680 -79.5811 218° Southwest  Level FlightAware Approximate
12:13PM 33.3365 -79.6107 218° Southwest  Level FlightAware Approximate
12:14PM 33.3050 -79.6402 218° Southwest  Level FlightAware Approximate
12:15PM 33.2735 -79.6697 218° Southwest  Level FlightAware Approximate
12:16PM 33.2420 -79.6992 218° Southwest  Level FlightAware Approximate
12:17PM 33.2105 -79.7287 218° Southwest  Level FlightAware Approximate
12:18PM 33.1790 -79.7582 218° Southwest  Level FlightAware Approximate
12:19PM 33.1475 -79.7876 218° Southwest  Level FlightAware Approximate
12:20PM 33.1160 -79.8170 218° Southwest  Level FlightAware Approximate
12:21PM 33.0845 -79.8464 218° Southwest  Level FlightAware Approximate
12:22PM 33.0530 -79.8758 218° Southwest  Level FlightAware Approximate
12:23PM 33.0214 -79.9051 218° Southwest  Level FlightAware Approximate
12:24PM 32.9899 -79.9345 218° Southwest  Level FlightAware Approximate
12:25PM 32.9583 -79.9638 218° Southwest  Level FlightAware Approximate
12:26PM 32.9268 -79.9931 218° Southwest  Level FlightAware Approximate
12:27PM 32.8952 -80.0223 218° Southwest  Level FlightAware Approximate
12:28PM 32.8610 -80.0466 206° Southwest  Level FlightAware Approximate
12:29PM 32.8252 -80.0678 206° Southwest  Level FlightAware Approximate
12:30PM 32.7894 -80.0890 206° Southwest  Level FlightAware Approximate
12:31PM 32.7536 -80.1102 206° Southwest  Level FlightAware Approximate
12:32PM 32.7178 -80.1314 206° Southwest  Level FlightAware Approximate
12:33PM 32.6819 -80.1526 206° Southwest  Level FlightAware Approximate
12:34PM 32.6461 -80.1737 206° Southwest  Level FlightAware Approximate
12:35PM 32.6103 -80.1948 206° Southwest  Level FlightAware Approximate
12:36PM 32.5745 -80.2160 206° Southwest  Level FlightAware Approximate
12:37PM 32.5387 -80.2371 206° Southwest  Level FlightAware Approximate
12:38PM 32.5028 -80.2580 206° Southwest  Level FlightAware Approximate
12:39PM 32.4668 -80.2787 206° Southwest  Level FlightAware Approximate
12:40PM 32.4308 -80.2993 206° Southwest  Level FlightAware Approximate
12:41PM 32.3948 -80.3200 206° Southwest  Level FlightAware Approximate
12:42PM 32.3587 -80.3406 206° Southwest  Level FlightAware Approximate
12:43PM 32.3227 -80.3612 206° Southwest  Level FlightAware Approximate
12:44PM 32.2867 -80.3818 206° Southwest  Level FlightAware Approximate
12:45PM 32.2507 -80.4024 206° Southwest  Level FlightAware Approximate
12:46PM 32.2147 -80.4229 206° Southwest  Level FlightAware Approximate
12:47PM 32.1787 -80.4435 206° Southwest  Level FlightAware Approximate
12:48PM 32.1426 -80.4640 206° Southwest  Level FlightAware Approximate
12:49PM 32.1066 -80.4845 206° Southwest  Level FlightAware Approximate
12:50PM 32.0706 -80.5050 206° Southwest  Level FlightAware Approximate
12:51PM 32.0346 -80.5257 206° Southwest  Level FlightAware Approximate
12:52PM 31.9988 -80.5467 206° Southwest  Level FlightAware Approximate
12:53PM 31.9630 -80.5677 206° Southwest  Level FlightAware Approximate
12:54PM 31.9272 -80.5887 206° Southwest  Level FlightAware Approximate
12:55PM 31.8914 -80.6097 206° Southwest  Level FlightAware Approximate
12:56PM 31.8556 -80.6307 206° Southwest  Level FlightAware Approximate
12:56PM 31.6642 -80.7617 206° Southwest 154 177 5,900  Level Jacksonville Center
12:57PM 31.8197 -80.6516 206° Southwest  Level FlightAware Approximate
12:57PM 31.6269 -80.7844 208° Southwest 154 177 6,000  Level Jacksonville Center
12:58PM 31.7839 -80.6725 206° Southwest  Level FlightAware Approximate
12:58PM 31.5919 -80.8047 206° Southwest 154 177 6,000  Level Jacksonville Center
12:59PM 31.7481 -80.6934 206° Southwest  Level FlightAware Approximate
12:59PM 31.5547 -80.8250 205° Southwest 154 177 6,100  Level Jacksonville Center
01:00PM 31.7122 -80.7143 206° Southwest  Level FlightAware Approximate
01:00PM 31.5114 -80.8528 209° Southwest 154 177 5,900  Level Jacksonville Center
01:01PM 31.6764 -80.7352 206° Southwest  Level FlightAware Approximate
01:01PM 31.4739 -80.8733 205° Southwest 154 177 6,000  Level Jacksonville Center
01:02PM 31.6410 -80.7558 206° Southwest  Level FlightAware Approximate
01:02PM 31.4367 -80.8958 207° Southwest 149 171 6,000  Level Jacksonville Center
01:03PM 31.4017 -80.9161 206° Southwest 154 177 5,900 -60 Descending Jacksonville Center
01:04PM 31.3644 -80.9364 205° Southwest 154 177 5,900  Level Jacksonville Center
01:05PM 31.3208 -80.9592 204° Southwest 154 177 6,000  Climbing Jacksonville Center
01:06PM 31.2836 -80.9794 205° Southwest 159 183 6,000 -60 Level Jacksonville Center
01:07PM 31.2422 -81.0022 205° Southwest 159 183 5,900 -180 Descending Jacksonville Center
01:08PM 31.2047 -81.0222 205° Southwest 154 177 5,700  Descending Jacksonville Center
01:09PM 31.1656 -81.0472 209° Southwest 154 177 5,900 180 Climbing Jacksonville Center
01:10PM 31.1239 -81.0556 190° South 154 177 6,100  Climbing Jacksonville Center
01:11PM 31.0819 -81.0467 170° South 148 170 6,000 -60 Descending Jacksonville Center
01:12PM 31.0361 -81.0547 189° South 156 180 6,000 -60 Level Jacksonville Center
01:13PM 30.9903 -81.0556 181° South 161 185 5,900  Descending Jacksonville Center
01:14PM 30.9486 -81.0564 181° South 161 185 6,000  Climbing Jacksonville Center
01:15PM 30.9047 -81.0597 184° South 161 185 5,900  Descending Jacksonville Center
01:16PM 30.8650 -81.0606 181° South 156 180 6,000  Climbing Jacksonville Center
01:17PM 30.8214 -81.0614 181° South 161 185 6,000  Level Jacksonville Center
01:18PM 30.7900 -81.0619 181° South 154 177 6,000  Level Jacksonville Center
01:19PM 30.7628 -81.0650 186° South 152 175 6,000  Level Jacksonville Center
01:19PM 30.7336 -81.0631 177° South 161 185 6,000 -60 Level Jacksonville Center
01:20PM 30.6897 -81.0664 184° South 161 185 5,900  Descending Jacksonville Center
01:21PM 30.6481 -81.0647 178° South 161 185 6,000  Climbing Jacksonville Center
01:22PM 30.6042 -81.0681 184° South 161 185 6,000  Level Jacksonville Center
01:23PM 30.5625 -81.0686 181° South 161 185 6,000  Level Jacksonville Center
01:24PM 30.5167 -81.0719 184° South 161 185 6,000  Level Jacksonville Center
01:25PM 30.4750 -81.0753 184° South 161 185 6,000  Level Jacksonville Center
01:26PM 30.4311 -81.0783 183° South 161 185 6,100  Climbing Jacksonville Center
01:27PM 30.3872 -81.0817 184° South 161 185 6,100 -60 Level Jacksonville Center
01:29PM 30.3206 -81.0878 185° South 160 184 6,000 -60 Descending Jacksonville Center
01:30PM 30.2767 -81.0861 178° South 159 183 6,000  Level Jacksonville Center
01:31PM 30.2308 -81.0919 186° South 157 181 6,000  Level Jacksonville Center
01:32PM 30.1828 -81.0953 183° South 156 180 6,000  Level Jacksonville Center
01:33PM 30.1411 -81.0983 184° South 156 180 6,000  Level Jacksonville Center
01:34PM 30.0911 -81.0992 181° South 160 184 6,000  Level Jacksonville Center
01:35PM 30.0514 -81.1025 184° South 155 178 6,000  Level Jacksonville Center
01:36PM 30.0078 -81.1056 183° South 159 183 6,000  Level Jacksonville Center
01:37PM 29.9617 -81.1114 186° South 157 181 6,000  Level Jacksonville Center
01:38PM 29.9222 -81.1097 178° South 159 183 6,000  Level Jacksonville Center
01:39PM 29.8950 -81.1100 181° South 160 184 6,000 -60 Level Jacksonville Center
01:40PM 29.8469 -81.1108 181° South 161 185 5,900 -60 Descending Jacksonville Center
01:41PM 29.8053 -81.1142 184° South 161 185 5,900 -960 Level Jacksonville Center
01:42PM 29.7428 -81.1178 183° South 203 234 4,000 -900 Descending Jacksonville Center
01:43PM 29.6925 -81.1161 178° South 168 193 4,000  Level Jacksonville Center
01:44PM 29.6508 -81.1144 178° South 145 167 4,000 -60 Level Jacksonville Center
01:45PM 29.6092 -81.1178 184° South 150 173 3,900 -540 Descending Jacksonville Center
01:46PM 29.5633 -81.1258 189° South 162 186 3,000 -480 Descending Jacksonville Center
01:47PM 29.5175 -81.1314 186° South 164 189 3,000  Level Jacksonville Center
01:48PM 29.4756 -81.1319 181° South 148 170 3,000  Level Jacksonville Center
01:49PM 29.4361 -81.1400 190° South 142 163 3,000  Level Jacksonville Center
01:50PM 29.3967 -81.1503 193° South 147 169 3,000  Level Jacksonville Center
01:51PM 29.3569 -81.1603 192° South 148 170 3,100  Climbing Jacksonville Center
01:52PM 29.3172 -81.1467 163° South 149 171 3,000 -60 Descending Jacksonville Center
01:53PM 29.2731 -81.1286 160° South 150 173 3,000  Level Jacksonville Center
01:54PM 29.2311 -81.1128 162° South 149 171 3,100 -480 Climbing Jacksonville Center
01:55PM 29.1831 -81.1111 178° South 173 199 2,000 -720 Descending Jacksonville Center
01:56PM 29.1414 -81.1094 178° South 163 188 1,700 -360 Descending Jacksonville Center
01:57PM 29.1075 -81.0839 147° Southeast 165 190 1,400  Descending Jacksonville Center
01:58PM 29.0842 -81.0511 129° Southeast 146 168 1,700 120 Climbing Jacksonville Center
01:59PM 29.0606 -81.0136 126° Southeast 148 170 1,700 -540 Level Jacksonville Center
02:00PM 29.0392 -80.9617 115° Southeast 185 213 700 -420 Descending Jacksonville Center
02:01PM 29.0222 -80.9478 144° Southeast 92 106 900 -120 Climbing Jacksonville Center
02:02PM 29.0369 -80.9547 338° Northwest 64 74 500 -240 Descending Jacksonville Center
02:03PM 29.0472 -80.9519 13° North 64 74 500  Level Jacksonville Center